createdAt,value
2023-05-25T00:01:24.769Z,19.50
2023-05-25T00:03:57.401Z,19.50
2023-05-25T00:06:33.664Z,19.50
2023-05-25T00:09:06.530Z,19.50
2023-05-25T00:11:39.709Z,19.50
2023-05-25T00:14:12.187Z,19.50
2023-05-25T00:16:45.855Z,19.50
2023-05-25T00:19:18.874Z,19.40
2023-05-25T00:21:52.512Z,19.50
2023-05-25T00:24:25.113Z,19.40
2023-05-25T00:26:58.490Z,19.40
2023-05-25T00:29:31.243Z,19.50
2023-05-25T00:32:03.999Z,19.40
2023-05-25T00:34:37.710Z,19.40
2023-05-25T00:37:10.618Z,19.50
2023-05-25T00:39:43.355Z,19.50
2023-05-25T00:42:19.912Z,19.40
2023-05-25T00:44:52.740Z,19.50
2023-05-25T00:47:26.555Z,19.50
2023-05-25T00:49:59.331Z,19.50
2023-05-25T00:52:31.856Z,19.40
2023-05-25T00:55:06.875Z,19.40
2023-05-25T00:57:41.799Z,19.50
2023-05-25T01:00:17.159Z,19.50
2023-05-25T01:02:53.368Z,19.40
2023-05-25T01:05:30.791Z,19.40
2023-05-25T01:08:05.362Z,19.30
2023-05-25T01:10:41.291Z,19.40
2023-05-25T01:13:17.681Z,19.40
2023-05-25T01:15:51.649Z,19.40
2023-05-25T01:18:25.182Z,19.40
2023-05-25T01:21:20.527Z,19.40
2023-05-25T01:24:06.298Z,19.40
2023-05-25T01:26:58.437Z,19.30
2023-05-25T01:29:33.801Z,19.40
2023-05-25T01:32:07.480Z,19.40
2023-05-25T01:34:44.586Z,19.40
2023-05-25T01:37:19.874Z,19.40
2023-05-25T01:39:52.428Z,19.40
2023-05-25T01:42:25.028Z,19.40
2023-05-25T01:44:59.111Z,19.40
2023-05-25T01:47:52.638Z,19.30
2023-05-25T01:50:56.936Z,19.30
2023-05-25T01:53:46.116Z,19.30
2023-05-25T01:56:19.660Z,19.30
2023-05-25T01:58:53.599Z,19.30
2023-05-25T02:01:28.433Z,19.30
2023-05-25T02:04:02.240Z,19.30
2023-05-25T02:06:37.748Z,19.30
2023-05-25T02:09:12.436Z,19.30
2023-05-25T02:11:45.070Z,19.30
2023-05-25T02:14:17.968Z,19.30
2023-05-25T02:16:51.099Z,19.30
2023-05-25T02:19:24.054Z,19.30
2023-05-25T02:21:56.680Z,19.30
2023-05-25T02:24:29.250Z,19.20
2023-05-25T02:27:02.214Z,19.20
2023-05-25T02:29:34.848Z,19.20
2023-05-25T02:32:07.818Z,19.20
2023-05-25T02:34:40.334Z,19.20
2023-05-25T02:37:13.007Z,19.30
2023-05-25T02:39:45.583Z,19.30
2023-05-25T02:42:18.250Z,19.30
2023-05-25T02:44:50.954Z,19.30
2023-05-25T02:47:23.757Z,19.30
2023-05-25T02:49:56.865Z,19.30
2023-05-25T02:52:30.852Z,19.30
2023-05-25T02:55:06.368Z,19.40
2023-05-25T02:57:43.085Z,19.40
2023-05-25T03:00:19.716Z,19.40
2023-05-25T03:02:52.406Z,19.40
2023-05-25T03:08:21.739Z,19.40
2023-05-25T03:10:54.404Z,19.40
2023-05-25T03:13:26.997Z,19.40
2023-05-25T03:15:59.678Z,19.50
2023-05-25T03:18:32.429Z,19.50
2023-05-25T03:21:05.239Z,19.40
2023-05-25T03:23:38.607Z,19.50
2023-05-25T03:26:13.828Z,19.40
2023-05-25T03:28:48.550Z,19.40
2023-05-25T03:31:21.111Z,19.40
2023-05-25T03:33:53.692Z,19.40
2023-05-25T03:36:27.987Z,19.50
2023-05-25T03:39:01.333Z,19.40
2023-05-25T03:41:34.927Z,19.50
2023-05-25T03:44:07.630Z,19.40
2023-05-25T03:46:40.749Z,19.40
2023-05-25T03:49:14.371Z,19.40
2023-05-25T03:51:47.219Z,19.40
2023-05-25T03:54:19.862Z,19.50
2023-05-25T03:56:53.999Z,19.40
2023-05-25T03:59:27.084Z,19.40
2023-05-25T04:01:59.407Z,19.40
2023-05-25T04:04:33.995Z,19.40
2023-05-25T04:07:06.623Z,19.40
2023-05-25T04:09:39.112Z,19.40
2023-05-25T04:12:11.895Z,19.40
2023-05-25T04:14:44.663Z,19.40
2023-05-25T04:17:19.249Z,19.40
2023-05-25T04:19:55.182Z,19.40
2023-05-25T04:22:27.928Z,19.40
2023-05-25T04:25:00.592Z,19.50
2023-05-25T04:27:33.328Z,19.40
2023-05-25T04:30:06.457Z,19.50
2023-05-25T04:32:57.914Z,19.50
2023-05-25T04:35:42.905Z,19.50
2023-05-25T04:38:17.907Z,19.60
2023-05-25T04:40:50.502Z,19.60
2023-05-25T04:43:26.147Z,19.60
2023-05-25T04:46:00.290Z,19.60
2023-05-25T04:48:35.401Z,19.60
2023-05-25T04:51:08.027Z,19.60
2023-05-25T04:53:40.906Z,19.60
2023-05-25T04:56:13.533Z,19.60
2023-05-25T04:58:46.689Z,19.60
2023-05-25T05:01:22.507Z,19.60
2023-05-25T05:03:56.871Z,19.60
2023-05-25T05:06:29.902Z,19.60
2023-05-25T05:09:03.925Z,19.60
2023-05-25T05:11:36.385Z,19.60
2023-05-25T05:14:10.296Z,19.60
2023-05-25T05:16:42.916Z,19.60
2023-05-25T05:19:16.020Z,19.60
2023-05-25T05:21:48.577Z,19.70
2023-05-25T05:24:22.864Z,19.70
2023-05-25T05:26:58.936Z,19.90
2023-05-25T05:29:41.841Z,19.90
2023-05-25T05:32:15.029Z,20.00
2023-05-25T05:34:47.739Z,20.20
2023-05-25T05:37:34.822Z,20.30
2023-05-25T05:40:08.099Z,20.40
2023-05-25T05:42:42.754Z,20.40
2023-05-25T05:45:16.446Z,20.40
2023-05-25T05:47:49.127Z,20.40
2023-05-25T05:50:22.966Z,20.50
2023-05-25T05:52:55.485Z,20.50
2023-05-25T05:55:28.063Z,20.50
2023-05-25T05:58:00.710Z,20.50
2023-05-25T06:00:33.730Z,20.50
2023-05-25T06:03:06.444Z,20.60
2023-05-25T06:05:39.197Z,20.70
2023-05-25T06:08:12.108Z,20.80
2023-05-25T06:10:44.588Z,20.90
2023-05-25T06:13:17.279Z,21.00
2023-05-25T06:15:49.892Z,21.00
2023-05-25T06:18:27.408Z,21.10
2023-05-25T06:21:01.212Z,21.10
2023-05-25T06:23:33.884Z,21.20
2023-05-25T06:26:07.345Z,21.30
2023-05-25T06:28:40.009Z,21.40
2023-05-25T06:31:13.338Z,21.40
2023-05-25T06:33:46.333Z,21.50
2023-05-25T06:36:19.369Z,21.60
2023-05-25T06:38:52.012Z,21.60
2023-05-25T06:41:24.677Z,21.60
2023-05-25T06:43:57.303Z,21.60
2023-05-25T06:46:36.962Z,21.60
2023-05-25T06:49:09.536Z,21.60
2023-05-25T06:51:42.165Z,21.70
2023-05-25T06:54:15.581Z,21.60
2023-05-25T06:56:52.356Z,21.70
2023-05-25T06:59:24.917Z,21.60
2023-05-25T07:01:59.371Z,21.50
2023-05-25T07:04:33.302Z,21.60
2023-05-25T07:07:07.029Z,21.50
2023-05-25T07:09:40.237Z,21.60
2023-05-25T07:12:12.999Z,21.60
2023-05-25T07:14:48.535Z,21.70
2023-05-25T07:17:22.154Z,21.80
2023-05-25T07:19:55.103Z,21.80
2023-05-25T07:22:27.584Z,21.90
2023-05-25T07:25:00.138Z,22.00
2023-05-25T07:27:34.008Z,22.10
2023-05-25T07:30:07.553Z,22.10
2023-05-25T07:32:41.458Z,22.10
2023-05-25T07:35:14.248Z,22.20
2023-05-25T07:37:46.799Z,22.20
2023-05-25T07:40:19.475Z,22.30
2023-05-25T07:42:57.862Z,22.30
2023-05-25T07:45:30.561Z,22.40
2023-05-25T07:48:03.241Z,22.40
2023-05-25T07:50:36.012Z,22.40
2023-05-25T07:53:08.590Z,22.40
2023-05-25T07:55:41.307Z,22.50
2023-05-25T07:58:13.948Z,22.50
2023-05-25T08:00:46.597Z,22.60
2023-05-25T08:03:24.139Z,22.60
2023-05-25T08:06:01.623Z,22.60
2023-05-25T08:08:35.099Z,22.60
2023-05-25T08:11:07.966Z,22.70
2023-05-25T08:13:40.500Z,22.70
2023-05-25T08:16:13.042Z,22.70
2023-05-25T08:18:47.128Z,22.70
2023-05-25T08:21:20.095Z,22.80
2023-05-25T08:23:54.145Z,22.80
2023-05-25T08:26:41.442Z,22.90
2023-05-25T08:29:19.367Z,22.90
2023-05-25T08:31:52.038Z,23.00
2023-05-25T08:34:24.620Z,23.00
2023-05-25T08:37:00.804Z,22.90
2023-05-25T08:39:34.800Z,22.90
2023-05-25T08:42:08.033Z,22.90
2023-05-25T08:44:40.732Z,22.90
2023-05-25T08:47:15.541Z,22.90
2023-05-25T08:49:50.410Z,22.90
2023-05-25T08:52:24.813Z,23.00
2023-05-25T08:55:01.878Z,23.00
2023-05-25T08:57:47.980Z,22.90
2023-05-25T09:00:28.519Z,22.90
2023-05-25T09:03:14.344Z,22.90
2023-05-25T09:05:47.666Z,22.90
2023-05-25T09:08:21.991Z,22.90
2023-05-25T09:10:57.325Z,22.90
2023-05-25T09:13:30.443Z,22.90
2023-05-25T09:16:03.101Z,22.90
2023-05-25T09:18:35.803Z,22.90
2023-05-25T09:21:08.919Z,22.90
2023-05-25T09:23:42.165Z,23.00
2023-05-25T09:26:15.279Z,22.90
2023-05-25T09:28:48.991Z,22.90
2023-05-25T09:31:24.975Z,22.90
2023-05-25T09:34:00.841Z,23.00
2023-05-25T09:36:39.174Z,23.00
2023-05-25T09:39:13.151Z,23.10
2023-05-25T09:41:46.163Z,23.10
2023-05-25T09:44:18.980Z,23.20
2023-05-25T09:46:51.557Z,23.20
2023-05-25T09:49:24.325Z,23.30
2023-05-25T09:51:57.102Z,23.20
2023-05-25T09:54:30.140Z,23.20
2023-05-25T09:57:05.565Z,23.10
2023-05-25T09:59:38.970Z,23.10
2023-05-25T10:02:12.671Z,23.10
2023-05-25T10:04:45.313Z,23.00
2023-05-25T10:07:18.212Z,23.00
2023-05-25T10:09:53.730Z,23.00
2023-05-25T10:12:27.366Z,23.10
2023-05-25T10:15:03.842Z,23.10
2023-05-25T10:17:41.708Z,23.10
2023-05-25T10:20:15.925Z,23.20
2023-05-25T10:23:08.775Z,23.30
2023-05-25T10:25:45.190Z,23.40
2023-05-25T10:28:28.567Z,23.50
2023-05-25T10:31:02.240Z,23.50
2023-05-25T10:33:35.053Z,23.50
2023-05-25T10:36:11.201Z,23.60
2023-05-25T10:38:45.117Z,23.50
2023-05-25T10:41:20.423Z,23.40
2023-05-25T10:43:53.870Z,23.40
2023-05-25T10:46:26.748Z,23.40
2023-05-25T10:49:02.781Z,23.40
2023-05-25T10:51:39.749Z,23.40
2023-05-25T10:54:15.437Z,23.40
2023-05-25T10:57:14.503Z,23.50
2023-05-25T11:00:00.007Z,23.40
2023-05-25T11:02:55.435Z,23.40
2023-05-25T11:05:28.170Z,23.30
2023-05-25T11:08:06.494Z,23.30
2023-05-25T11:10:50.433Z,23.20
2023-05-25T11:13:31.880Z,23.20
2023-05-25T11:16:27.377Z,23.20
2023-05-25T11:19:01.285Z,23.20
2023-05-25T11:21:36.909Z,23.10
2023-05-25T11:24:20.857Z,23.10
2023-05-25T11:26:56.095Z,23.10
2023-05-25T11:29:32.277Z,23.00
2023-05-25T11:32:05.155Z,23.00
2023-05-25T11:34:37.883Z,22.90
2023-05-25T11:37:12.226Z,22.90
2023-05-25T11:39:54.544Z,22.90
2023-05-25T11:42:28.073Z,22.90
2023-05-25T11:45:03.910Z,22.90
2023-05-25T11:47:39.611Z,22.80
2023-05-25T11:50:21.783Z,22.80
2023-05-25T11:52:54.833Z,22.80
2023-05-25T11:55:27.309Z,22.80
2023-05-25T11:58:00.022Z,22.80
2023-05-25T12:00:32.782Z,22.80
2023-05-25T12:03:06.049Z,22.70
2023-05-25T12:05:39.699Z,22.70
2023-05-25T12:08:12.474Z,22.70
2023-05-25T12:10:52.371Z,22.70
2023-05-25T12:13:25.022Z,22.70
2023-05-25T12:16:00.173Z,22.70
2023-05-25T12:18:33.059Z,22.60
2023-05-25T12:21:08.609Z,22.60
2023-05-25T12:23:41.447Z,22.60
2023-05-25T12:26:15.622Z,22.60
2023-05-25T12:29:08.672Z,22.60
2023-05-25T12:31:41.618Z,22.50
2023-05-25T12:34:14.972Z,22.50
2023-05-25T12:36:52.270Z,22.60
2023-05-25T12:39:31.136Z,22.50
2023-05-25T12:42:04.284Z,22.50
2023-05-25T12:44:37.671Z,22.50
2023-05-25T12:47:14.926Z,22.50
2023-05-25T12:49:52.294Z,22.50
2023-05-25T12:52:35.942Z,22.50
2023-05-25T12:55:30.855Z,22.50
2023-05-25T12:58:07.841Z,22.50
2023-05-25T13:00:43.888Z,22.50
2023-05-25T13:03:18.502Z,22.50
2023-05-25T13:05:52.130Z,22.50
2023-05-25T13:08:25.308Z,22.50
2023-05-25T13:10:57.886Z,22.40
2023-05-25T13:13:31.981Z,22.40
2023-05-25T13:16:04.781Z,22.40
2023-05-25T13:18:37.435Z,22.40
2023-05-25T13:21:10.377Z,22.40
2023-05-25T13:23:42.835Z,22.30
2023-05-25T13:26:15.398Z,22.30
2023-05-25T13:28:49.772Z,22.30
2023-05-25T13:31:22.441Z,22.30
2023-05-25T13:33:55.120Z,22.30
2023-05-25T13:36:28.291Z,22.30
2023-05-25T13:39:05.555Z,22.30
2023-05-25T13:41:38.336Z,22.30
2023-05-25T13:44:13.670Z,22.30
2023-05-25T13:46:48.635Z,22.30
2023-05-25T13:49:21.475Z,22.30
2023-05-25T13:51:56.271Z,22.30
2023-05-25T13:54:29.011Z,22.30
2023-05-25T13:57:01.969Z,22.40
2023-05-25T13:59:34.357Z,22.40
2023-05-25T14:02:07.863Z,22.30
2023-05-25T14:04:42.844Z,22.40
2023-05-25T14:07:38.982Z,22.40
2023-05-25T14:14:27.164Z,22.40
2023-05-25T14:17:03.845Z,22.40
2023-05-25T14:19:36.473Z,22.40
2023-05-25T14:22:13.475Z,22.40
2023-05-25T14:24:46.957Z,22.40
2023-05-25T14:27:21.600Z,22.40
2023-05-25T14:29:54.160Z,22.50
2023-05-25T14:32:26.822Z,22.50
2023-05-25T14:34:59.494Z,22.40
2023-05-25T14:37:32.111Z,22.40
2023-05-25T14:40:05.163Z,22.40
2023-05-25T14:42:37.751Z,22.40
2023-05-25T14:45:15.231Z,22.40
2023-05-25T14:47:49.029Z,22.40
2023-05-25T14:50:21.697Z,22.40
2023-05-25T14:52:54.369Z,22.40
2023-05-25T14:55:26.908Z,22.40
2023-05-25T14:57:59.590Z,22.40
2023-05-25T15:00:32.160Z,22.40
2023-05-25T15:03:05.302Z,22.40
2023-05-25T15:05:37.919Z,22.50
2023-05-25T15:08:10.863Z,22.40
2023-05-25T15:10:43.241Z,22.50
2023-05-25T15:13:16.270Z,22.50
2023-05-25T15:15:49.355Z,22.50
2023-05-25T15:18:21.928Z,22.50
2023-05-25T15:20:54.540Z,22.40
2023-05-25T15:23:27.152Z,22.40
2023-05-25T15:26:04.408Z,22.40
2023-05-25T15:28:37.098Z,22.40
2023-05-25T15:31:12.709Z,22.40
2023-05-25T15:33:54.281Z,22.40
2023-05-25T15:36:31.568Z,22.40
2023-05-25T15:39:06.380Z,22.30
2023-05-25T15:41:39.083Z,22.30
2023-05-25T15:44:12.973Z,22.30
2023-05-25T15:46:45.655Z,22.30
2023-05-25T15:49:18.289Z,22.30
2023-05-25T15:51:53.461Z,22.30
2023-05-25T15:54:25.964Z,22.30
2023-05-25T15:56:58.561Z,22.30
2023-05-25T15:59:31.129Z,22.30
2023-05-25T16:02:03.901Z,22.30
2023-05-25T16:04:36.525Z,22.20
2023-05-25T16:07:09.488Z,22.20
2023-05-25T16:09:41.802Z,22.20
2023-05-25T16:12:14.460Z,22.20
2023-05-25T16:14:47.140Z,22.20
2023-05-25T16:17:19.790Z,22.30
2023-05-25T16:19:52.331Z,22.20
2023-05-25T16:22:24.877Z,22.20
2023-05-25T16:24:57.465Z,22.20
2023-05-25T16:27:30.053Z,22.20
2023-05-25T16:30:02.735Z,22.20
2023-05-25T16:32:35.401Z,22.20
2023-05-25T16:35:08.378Z,22.30
2023-05-25T16:37:40.881Z,22.20
2023-05-25T16:40:13.457Z,22.20
2023-05-25T16:42:46.090Z,22.20
2023-05-25T16:45:20.851Z,22.20
2023-05-25T16:47:53.551Z,22.10
2023-05-25T16:50:26.418Z,22.20
2023-05-25T16:52:58.997Z,22.20
2023-05-25T16:55:33.784Z,22.20
2023-05-25T16:58:06.686Z,22.20
2023-05-25T17:00:39.462Z,22.20
2023-05-25T17:03:12.542Z,22.10
2023-05-25T17:05:45.406Z,22.10
2023-05-25T17:08:17.979Z,22.10
2023-05-25T17:10:50.914Z,22.10
2023-05-25T17:13:23.525Z,22.10
2023-05-25T17:15:56.182Z,22.20
2023-05-25T17:18:29.009Z,22.10
2023-05-25T17:21:02.144Z,22.10
2023-05-25T17:23:34.724Z,22.10
2023-05-25T17:26:07.288Z,22.10
2023-05-25T17:28:40.038Z,22.10
2023-05-25T17:31:13.232Z,22.10
2023-05-25T17:33:46.162Z,22.10
2023-05-25T17:36:18.664Z,22.10
2023-05-25T17:38:51.632Z,22.10
2023-05-25T17:41:24.085Z,22.10
2023-05-25T17:43:56.793Z,22.10
2023-05-25T17:46:29.587Z,22.10
2023-05-25T17:49:02.174Z,22.10
2023-05-25T17:51:34.764Z,22.10
2023-05-25T17:54:07.444Z,22.10
2023-05-25T17:56:40.061Z,22.00
2023-05-25T17:59:12.779Z,22.00
2023-05-25T18:01:45.587Z,22.00
2023-05-25T18:04:19.834Z,22.00
2023-05-25T18:06:52.833Z,22.00
2023-05-25T18:09:25.666Z,22.00
2023-05-25T18:11:58.388Z,22.00
2023-05-25T18:14:35.437Z,22.00
2023-05-25T18:17:08.040Z,22.00
2023-05-25T18:19:42.534Z,22.00
2023-05-25T18:22:14.958Z,22.00
2023-05-25T18:24:51.121Z,22.00
2023-05-25T18:27:23.709Z,22.00
2023-05-25T18:29:56.248Z,22.00
2023-05-25T18:32:28.937Z,22.00
2023-05-25T18:35:01.608Z,21.90
2023-05-25T18:37:36.017Z,22.00
2023-05-25T18:40:09.421Z,22.00
2023-05-25T18:42:42.114Z,21.90
2023-05-25T18:45:15.354Z,21.90
2023-05-25T18:47:48.029Z,21.90
2023-05-25T18:50:20.952Z,21.90
2023-05-25T18:52:53.993Z,21.90
2023-05-25T18:55:26.627Z,21.90
2023-05-25T18:57:59.198Z,22.00
2023-05-25T19:00:31.842Z,22.00
2023-05-25T19:03:05.208Z,21.90
2023-05-25T19:05:37.933Z,21.90
2023-05-25T19:08:10.711Z,21.90
2023-05-25T19:10:43.350Z,21.90
2023-05-25T19:13:16.038Z,21.80
2023-05-25T19:15:48.996Z,21.80
2023-05-25T19:18:21.761Z,21.70
2023-05-25T19:20:54.420Z,21.70
2023-05-25T19:23:27.065Z,21.60
2023-05-25T19:25:59.744Z,21.50
2023-05-25T19:28:32.410Z,21.50
2023-05-25T19:31:07.307Z,21.40
2023-05-25T19:33:40.065Z,21.40
2023-05-25T19:36:12.672Z,21.40
2023-05-25T19:38:45.296Z,21.40
2023-05-25T19:41:17.885Z,21.40
2023-05-25T19:43:50.568Z,21.40
2023-05-25T19:46:23.276Z,21.40
2023-05-25T19:48:57.974Z,21.40
2023-05-25T19:51:30.614Z,21.40
2023-05-25T19:54:03.272Z,21.50
2023-05-25T19:56:35.828Z,21.50
2023-05-25T19:59:08.382Z,21.50
2023-05-25T20:01:41.072Z,21.50
2023-05-25T20:04:13.921Z,21.50
2023-05-25T20:06:46.519Z,21.50
2023-05-25T20:09:19.216Z,21.50
2023-05-25T20:11:51.885Z,21.50
2023-05-25T20:14:24.504Z,21.50
2023-05-25T20:16:57.343Z,21.50
2023-05-25T20:19:29.989Z,21.50
2023-05-25T20:22:02.825Z,21.50
2023-05-25T20:24:35.534Z,21.50
2023-05-25T20:27:08.115Z,21.50
2023-05-25T20:29:48.136Z,21.50
2023-05-25T20:32:21.133Z,21.50
2023-05-25T20:34:53.568Z,21.50
2023-05-25T20:37:26.196Z,21.50
2023-05-25T20:39:58.759Z,21.50
2023-05-25T20:42:31.320Z,21.50
2023-05-25T20:45:05.101Z,21.50
2023-05-25T20:47:40.712Z,21.50
2023-05-25T20:50:13.355Z,21.50
2023-05-25T20:52:45.915Z,21.50
2023-05-25T20:55:18.639Z,21.50
2023-05-25T20:57:53.930Z,21.50
2023-05-25T21:00:26.683Z,21.50
2023-05-25T21:03:01.940Z,21.50
2023-05-25T21:05:36.254Z,21.40
2023-05-25T21:08:09.013Z,21.40
2023-05-25T21:10:41.930Z,21.40
2023-05-25T21:13:15.579Z,21.30
2023-05-25T21:15:48.361Z,21.30
2023-05-25T21:18:21.097Z,21.30
2023-05-25T21:20:53.613Z,21.20
2023-05-25T21:23:26.314Z,21.20
2023-05-25T21:25:59.018Z,21.20
2023-05-25T21:28:31.707Z,21.20
2023-05-25T21:31:04.341Z,21.20
2023-05-25T21:33:37.964Z,21.20
2023-05-25T21:36:10.542Z,21.20
2023-05-25T21:38:43.305Z,21.20
2023-05-25T21:41:15.817Z,21.20
2023-05-25T21:43:48.446Z,21.20
2023-05-25T21:46:21.047Z,21.20
2023-05-25T21:48:53.567Z,21.20
2023-05-25T21:51:26.193Z,21.20
2023-05-25T21:54:00.128Z,21.20
2023-05-25T21:56:32.721Z,21.20
2023-05-25T21:59:05.418Z,21.20
2023-05-25T22:01:38.135Z,21.20
2023-05-25T22:04:10.961Z,21.20
2023-05-25T22:06:43.552Z,21.20
2023-05-25T22:09:16.310Z,21.20
2023-05-25T22:11:48.984Z,21.20
2023-05-25T22:14:21.601Z,21.20
2023-05-25T22:16:54.267Z,21.20
2023-05-25T22:19:26.874Z,21.20
2023-05-25T22:21:59.536Z,21.20
2023-05-25T22:24:32.086Z,21.20
2023-05-25T22:27:04.877Z,21.20
2023-05-25T22:29:38.272Z,21.20
2023-05-25T22:32:11.024Z,21.20
2023-05-25T22:34:43.661Z,21.20
2023-05-25T22:37:17.623Z,21.20
2023-05-25T22:39:50.549Z,21.20
2023-05-25T22:42:23.219Z,21.20
2023-05-25T22:44:55.838Z,21.20
2023-05-25T22:47:28.424Z,21.20
2023-05-25T22:50:01.141Z,21.20
2023-05-25T22:52:33.749Z,21.20
2023-05-25T22:55:07.098Z,21.20
2023-05-25T22:57:39.734Z,21.20
2023-05-25T23:00:16.074Z,21.10
2023-05-25T23:02:48.809Z,21.10
2023-05-25T23:05:21.649Z,21.10
2023-05-25T23:07:54.241Z,21.10
2023-05-25T23:10:26.765Z,21.10
2023-05-25T23:12:59.391Z,21.10
2023-05-25T23:15:32.114Z,21.10
2023-05-25T23:18:04.863Z,21.10
2023-05-25T23:20:37.823Z,21.10
2023-05-25T23:23:10.317Z,21.00
2023-05-25T23:25:43.063Z,21.00
2023-05-25T23:28:16.028Z,21.00
2023-05-25T23:30:48.565Z,21.00
2023-05-25T23:33:21.248Z,21.00
2023-05-25T23:35:53.846Z,21.00
2023-05-25T23:38:26.500Z,21.00
2023-05-25T23:40:59.181Z,21.00
2023-05-25T23:43:31.882Z,21.00
2023-05-25T23:46:10.311Z,21.00
2023-05-25T23:48:43.410Z,21.00
2023-05-25T23:51:15.978Z,21.00
2023-05-25T23:53:48.531Z,21.00
2023-05-25T23:56:22.233Z,21.00
2023-05-25T23:58:55.149Z,21.00
